createdAt,value
2017-12-05T00:01:46.170Z,18.91
2017-12-05T00:04:14.448Z,18.87
2017-12-05T00:06:42.751Z,18.88
2017-12-05T00:09:11.032Z,18.86
2017-12-05T00:11:39.371Z,18.87
2017-12-05T00:14:07.655Z,18.83
2017-12-05T00:16:36.163Z,18.81
2017-12-05T00:19:04.615Z,18.82
2017-12-05T00:21:32.941Z,18.84
2017-12-05T00:24:01.222Z,18.82
2017-12-05T00:26:29.550Z,18.83
2017-12-05T00:28:57.860Z,18.81
2017-12-05T00:31:26.201Z,18.82
2017-12-05T00:33:54.454Z,18.80
2017-12-05T00:36:22.748Z,18.81
2017-12-05T00:38:51.015Z,18.80
2017-12-05T00:41:19.315Z,18.79
2017-12-05T00:43:47.608Z,18.79
2017-12-05T00:46:15.994Z,18.79
2017-12-05T00:48:44.267Z,18.82
2017-12-05T00:51:12.559Z,18.83
2017-12-05T00:53:40.848Z,18.82
2017-12-05T00:56:09.134Z,18.83
2017-12-05T00:58:37.415Z,18.83
2017-12-05T01:01:05.733Z,18.85
2017-12-05T01:03:34.051Z,18.87
2017-12-05T01:06:02.347Z,18.90
2017-12-05T01:08:30.642Z,18.90
2017-12-05T01:10:58.957Z,18.87
2017-12-05T01:13:27.274Z,18.90
2017-12-05T01:15:55.583Z,18.86
2017-12-05T01:18:24.015Z,18.84
2017-12-05T01:20:52.298Z,18.84
2017-12-05T01:23:20.554Z,18.82
2017-12-05T01:25:48.879Z,18.81
2017-12-05T01:28:17.337Z,18.84
2017-12-05T01:30:45.644Z,18.83
2017-12-05T01:33:13.950Z,18.84
2017-12-05T01:35:42.404Z,18.85
2017-12-05T01:38:10.911Z,18.83
2017-12-05T01:40:39.231Z,18.82
2017-12-05T01:43:07.530Z,18.83
2017-12-05T01:45:35.915Z,18.82
2017-12-05T01:48:04.423Z,18.82
2017-12-05T01:50:32.713Z,18.84
2017-12-05T01:53:01.138Z,18.87
2017-12-05T01:55:29.443Z,18.82
2017-12-05T01:57:57.719Z,18.80
2017-12-05T02:00:26.022Z,18.81
2017-12-05T02:02:54.332Z,18.82
2017-12-05T02:05:22.633Z,18.83
2017-12-05T02:07:51.017Z,18.84
2017-12-05T02:10:19.324Z,18.85
2017-12-05T02:12:47.756Z,18.85
2017-12-05T02:15:16.076Z,18.84
2017-12-05T02:17:44.761Z,18.86
2017-12-05T02:20:13.231Z,18.84
2017-12-05T02:22:41.535Z,18.82
2017-12-05T02:25:09.823Z,18.81
2017-12-05T02:27:38.234Z,18.80
2017-12-05T02:30:06.565Z,18.81
2017-12-05T02:32:34.859Z,18.79
2017-12-05T02:35:03.119Z,18.81
2017-12-05T02:37:31.531Z,18.82
2017-12-05T02:39:59.803Z,18.83
2017-12-05T02:42:28.225Z,18.83
2017-12-05T02:44:56.575Z,18.82
2017-12-05T02:47:24.899Z,18.81
2017-12-05T02:49:53.174Z,18.81
2017-12-05T02:52:21.508Z,18.81
2017-12-05T02:54:49.882Z,18.82
2017-12-05T02:57:18.208Z,18.79
2017-12-05T02:59:46.537Z,18.77
2017-12-05T03:02:15.351Z,18.78
2017-12-05T03:04:43.624Z,18.80
2017-12-05T03:07:11.933Z,18.81
2017-12-05T03:09:40.255Z,18.82
2017-12-05T03:12:08.555Z,18.82
2017-12-05T03:14:37.103Z,18.81
2017-12-05T03:17:05.416Z,18.86
2017-12-05T03:19:33.736Z,18.94
2017-12-05T03:22:02.010Z,19.04
2017-12-05T03:24:30.324Z,19.10
2017-12-05T03:26:58.607Z,19.10
2017-12-05T03:29:26.904Z,19.03
2017-12-05T03:31:55.199Z,19.11
2017-12-05T03:34:23.501Z,19.11
2017-12-05T03:36:51.840Z,19.10
2017-12-05T03:39:20.110Z,19.11
2017-12-05T03:41:48.583Z,19.09
2017-12-05T03:44:16.864Z,19.05
2017-12-05T03:46:45.324Z,19.12
2017-12-05T03:49:13.791Z,19.09
2017-12-05T03:51:42.087Z,19.11
2017-12-05T03:54:10.385Z,19.07
2017-12-05T03:56:38.680Z,19.10
2017-12-05T03:59:07.003Z,19.06
2017-12-05T04:01:35.324Z,19.13
2017-12-05T04:04:03.604Z,19.10
2017-12-05T04:06:31.878Z,19.10
2017-12-05T04:09:00.172Z,19.06
2017-12-05T04:11:28.467Z,19.03
2017-12-05T04:13:56.771Z,19.01
2017-12-05T04:16:25.082Z,19.05
2017-12-05T04:18:53.371Z,19.02
2017-12-05T04:21:21.687Z,19.00
2017-12-05T04:23:50.008Z,19.01
2017-12-05T04:26:18.362Z,19.01
2017-12-05T04:28:46.641Z,19.03
2017-12-05T04:31:14.931Z,19.02
2017-12-05T04:33:43.223Z,19.03
2017-12-05T04:36:11.545Z,19.03
2017-12-05T04:38:39.979Z,18.99
2017-12-05T04:41:08.431Z,18.98
2017-12-05T04:43:36.899Z,18.97
2017-12-05T04:46:05.224Z,18.98
2017-12-05T04:48:33.564Z,18.99
2017-12-05T04:51:01.873Z,18.97
2017-12-05T04:53:30.199Z,18.94
2017-12-05T04:55:58.498Z,18.96
2017-12-05T04:58:26.963Z,18.96
2017-12-05T05:00:55.268Z,18.94
2017-12-05T05:03:23.631Z,18.92
2017-12-05T05:05:51.938Z,18.89
2017-12-05T05:08:20.247Z,18.92
2017-12-05T05:10:48.551Z,18.91
2017-12-05T05:13:16.854Z,18.92
2017-12-05T05:15:45.307Z,18.93
2017-12-05T05:18:13.775Z,18.93
2017-12-05T05:20:42.195Z,18.91
2017-12-05T05:23:10.472Z,18.90
2017-12-05T05:25:38.787Z,18.89
2017-12-05T05:28:07.080Z,18.89
2017-12-05T05:30:35.400Z,18.90
2017-12-05T05:33:03.819Z,18.90
2017-12-05T05:35:32.123Z,18.91
2017-12-05T05:38:00.419Z,18.93
2017-12-05T05:40:28.939Z,18.95
2017-12-05T05:42:57.246Z,18.93
2017-12-05T05:45:25.543Z,18.95
2017-12-05T05:47:53.875Z,18.91
2017-12-05T05:50:22.191Z,18.93
2017-12-05T05:52:50.663Z,18.97
2017-12-05T05:55:18.954Z,19.00
2017-12-05T05:57:47.242Z,19.01
2017-12-05T06:00:15.539Z,19.00
2017-12-05T06:02:43.977Z,19.00
2017-12-05T06:05:12.279Z,19.01
2017-12-05T06:07:40.727Z,18.97
2017-12-05T06:10:09.044Z,19.01
2017-12-05T06:12:37.332Z,19.07
2017-12-05T06:15:05.779Z,19.08
2017-12-05T06:17:34.086Z,19.04
2017-12-05T06:20:02.536Z,19.01
2017-12-05T06:22:30.882Z,19.03
2017-12-05T06:24:59.151Z,19.04
2017-12-05T06:27:27.504Z,19.06
2017-12-05T06:29:55.820Z,19.04
2017-12-05T06:32:24.131Z,19.01
2017-12-05T06:34:52.587Z,19.00
2017-12-05T06:37:20.912Z,18.99
2017-12-05T06:39:49.189Z,19.00
2017-12-05T06:42:17.731Z,18.98
2017-12-05T06:44:46.041Z,18.99
2017-12-05T06:47:14.345Z,18.99
2017-12-05T06:49:42.604Z,18.96
2017-12-05T06:52:10.969Z,18.96
2017-12-05T06:54:39.235Z,18.96
2017-12-05T06:57:07.519Z,18.96
2017-12-05T06:59:36.604Z,18.95
2017-12-05T07:02:04.996Z,18.94
2017-12-05T07:04:33.319Z,18.93
2017-12-05T07:07:01.631Z,18.89
2017-12-05T07:09:29.911Z,18.89
2017-12-05T07:11:59.254Z,18.85
2017-12-05T07:14:29.157Z,18.90
2017-12-05T07:16:57.622Z,18.90
2017-12-05T07:19:25.899Z,18.93
2017-12-05T07:21:54.233Z,18.92
2017-12-05T07:24:22.583Z,18.90
2017-12-05T07:26:50.925Z,18.89
2017-12-05T07:29:19.628Z,18.88
2017-12-05T07:31:47.939Z,18.83
2017-12-05T07:34:16.430Z,18.86
2017-12-05T07:36:44.779Z,18.87
2017-12-05T07:39:13.243Z,18.89
2017-12-05T07:41:41.595Z,18.88
2017-12-05T07:44:09.897Z,18.89
2017-12-05T07:46:38.226Z,18.96
2017-12-05T07:49:06.623Z,18.97
2017-12-05T07:51:35.080Z,18.97
2017-12-05T07:54:03.379Z,19.02
2017-12-05T07:56:31.716Z,18.99
2017-12-05T07:59:00.019Z,19.02
2017-12-05T08:01:28.375Z,19.08
2017-12-05T08:03:56.660Z,19.08
2017-12-05T08:06:24.971Z,19.10
2017-12-05T08:08:53.415Z,19.11
2017-12-05T08:11:21.977Z,19.09
2017-12-05T08:13:50.236Z,19.10
2017-12-05T08:16:18.548Z,19.10
2017-12-05T08:18:47.065Z,19.05
2017-12-05T08:21:15.659Z,19.11
2017-12-05T08:23:44.163Z,19.14
2017-12-05T08:26:12.469Z,19.09
2017-12-05T08:28:40.875Z,19.12
2017-12-05T08:31:09.183Z,19.08
2017-12-05T08:33:37.616Z,19.08
2017-12-05T08:36:06.104Z,19.11
2017-12-05T08:38:36.102Z,19.13
2017-12-05T08:41:05.948Z,19.11
2017-12-05T08:43:34.227Z,19.10
2017-12-05T08:46:02.525Z,19.07
2017-12-05T08:48:30.804Z,19.11
2017-12-05T08:50:59.159Z,19.11
2017-12-05T08:53:27.487Z,19.08
2017-12-05T08:55:55.784Z,19.13
2017-12-05T08:58:24.425Z,19.12
2017-12-05T09:00:53.234Z,19.16
2017-12-05T09:03:21.590Z,19.13
2017-12-05T09:05:50.263Z,19.13
2017-12-05T09:08:18.619Z,19.12
2017-12-05T09:10:46.940Z,19.12
2017-12-05T09:13:15.228Z,19.14
2017-12-05T09:15:43.524Z,19.17
2017-12-05T09:18:11.796Z,19.26
2017-12-05T09:20:40.215Z,19.40
2017-12-05T09:23:08.652Z,19.54
2017-12-05T09:25:37.310Z,19.51
2017-12-05T09:28:05.618Z,19.51
2017-12-05T09:30:33.932Z,19.49
2017-12-05T09:33:02.225Z,19.52
2017-12-05T09:35:30.692Z,19.60
2017-12-05T09:37:59.559Z,19.60
2017-12-05T09:40:27.851Z,19.61
2017-12-05T09:42:56.157Z,19.62
2017-12-05T09:45:24.619Z,19.64
2017-12-05T09:47:52.939Z,19.70
2017-12-05T09:50:21.226Z,19.69
2017-12-05T09:52:49.623Z,19.65
2017-12-05T09:55:17.916Z,19.70
2017-12-05T09:57:46.399Z,19.63
2017-12-05T10:00:14.717Z,19.60
2017-12-05T10:02:43.022Z,19.61
2017-12-05T10:05:11.347Z,19.66
2017-12-05T10:07:39.618Z,19.64
2017-12-05T10:10:07.907Z,19.66
2017-12-05T10:12:36.215Z,19.61
2017-12-05T10:15:04.734Z,19.62
2017-12-05T10:17:32.992Z,19.63
2017-12-05T10:20:01.283Z,19.62
2017-12-05T10:22:29.794Z,19.65
2017-12-05T10:24:58.099Z,19.66
2017-12-05T10:27:26.431Z,19.60
2017-12-05T10:29:54.698Z,19.61
2017-12-05T10:32:23.108Z,19.60
2017-12-05T10:34:51.412Z,19.59
2017-12-05T10:37:19.747Z,19.57
2017-12-05T10:39:48.011Z,19.61
2017-12-05T10:42:16.339Z,19.56
2017-12-05T10:44:44.632Z,19.56
2017-12-05T10:47:12.956Z,19.61
2017-12-05T10:49:41.211Z,19.53
2017-12-05T10:52:09.699Z,19.51
2017-12-05T10:54:38.231Z,19.51
2017-12-05T10:57:06.899Z,19.52
2017-12-05T10:59:35.184Z,19.50
2017-12-05T11:02:03.512Z,19.50
2017-12-05T11:04:31.942Z,19.49
2017-12-05T11:07:00.276Z,19.50
2017-12-05T11:09:28.632Z,19.53
2017-12-05T11:11:57.139Z,19.55
2017-12-05T11:14:25.426Z,19.55
2017-12-05T11:16:53.765Z,19.55
2017-12-05T11:19:22.155Z,19.56
2017-12-05T11:21:51.323Z,19.55
2017-12-05T11:24:19.603Z,19.53
2017-12-05T11:26:47.935Z,19.51
2017-12-05T11:29:16.272Z,19.49
2017-12-05T11:31:44.875Z,19.49
2017-12-05T11:34:13.171Z,19.49
2017-12-05T11:36:41.475Z,19.49
2017-12-05T11:39:09.919Z,19.50
2017-12-05T11:41:38.243Z,19.48
2017-12-05T11:44:06.535Z,19.50
2017-12-05T11:46:35.682Z,19.51
2017-12-05T11:49:03.995Z,19.56
2017-12-05T11:51:32.347Z,19.52
2017-12-05T11:54:00.611Z,19.52
2017-12-05T11:56:28.927Z,19.51
2017-12-05T11:58:57.203Z,19.51
2017-12-05T12:01:25.523Z,19.50
2017-12-05T12:03:53.991Z,19.50
2017-12-05T12:06:22.514Z,19.48
2017-12-05T12:08:50.936Z,19.48
2017-12-05T12:11:19.266Z,19.46
2017-12-05T12:13:47.680Z,19.46
2017-12-05T12:16:16.043Z,19.46
2017-12-05T12:18:44.330Z,19.46
2017-12-05T12:21:12.742Z,19.46
2017-12-05T12:23:41.015Z,19.47
2017-12-05T12:26:09.339Z,19.46
2017-12-05T12:28:37.617Z,19.47
2017-12-05T12:31:05.960Z,19.45
2017-12-05T12:33:34.247Z,19.42
2017-12-05T12:36:02.818Z,19.41
2017-12-05T12:38:31.091Z,19.43
2017-12-05T12:40:59.601Z,19.45
2017-12-05T12:43:28.043Z,19.43
2017-12-05T12:45:56.359Z,19.43
2017-12-05T12:48:24.787Z,19.44
2017-12-05T12:50:53.187Z,19.45
2017-12-05T12:53:21.466Z,19.45
2017-12-05T12:55:49.755Z,19.45
2017-12-05T12:58:18.016Z,19.44
2017-12-05T13:00:46.309Z,19.45
2017-12-05T13:03:14.607Z,19.47
2017-12-05T13:05:42.927Z,19.46
2017-12-05T13:08:11.332Z,19.47
2017-12-05T13:10:39.632Z,19.47
2017-12-05T13:13:07.911Z,19.46
2017-12-05T13:15:36.191Z,19.48
2017-12-05T13:18:04.473Z,19.48
2017-12-05T13:20:32.859Z,19.45
2017-12-05T13:23:01.144Z,19.48
2017-12-05T13:25:29.439Z,19.48
2017-12-05T13:27:57.715Z,19.49
2017-12-05T13:30:26.119Z,19.48
2017-12-05T13:32:54.446Z,19.48
2017-12-05T13:35:22.758Z,19.48
2017-12-05T13:37:51.107Z,19.46
2017-12-05T13:40:19.433Z,19.48
2017-12-05T13:42:47.740Z,19.49
2017-12-05T13:45:16.238Z,19.49
2017-12-05T13:47:44.491Z,19.48
2017-12-05T13:50:12.812Z,19.48
2017-12-05T13:52:41.124Z,19.49
2017-12-05T13:55:09.438Z,19.48
2017-12-05T13:57:37.728Z,19.47
2017-12-05T14:00:06.040Z,19.48
2017-12-05T14:02:34.346Z,19.49
2017-12-05T14:05:02.653Z,19.48
2017-12-05T14:07:31.027Z,19.49
2017-12-05T14:09:59.271Z,19.47
2017-12-05T14:12:27.854Z,19.49
2017-12-05T14:14:56.156Z,19.48
2017-12-05T14:17:24.599Z,19.48
2017-12-05T14:19:52.879Z,19.48
2017-12-05T14:22:21.359Z,19.47
2017-12-05T14:24:49.856Z,19.47
2017-12-05T14:27:18.242Z,19.46
2017-12-05T14:29:46.947Z,19.46
2017-12-05T14:32:15.276Z,19.47
2017-12-05T14:34:43.568Z,19.48
2017-12-05T14:37:11.907Z,19.47
2017-12-05T14:39:40.286Z,19.47
2017-12-05T14:42:08.829Z,19.48
2017-12-05T14:44:38.399Z,19.50
2017-12-05T14:47:07.209Z,19.50
2017-12-05T14:49:35.488Z,19.52
2017-12-05T14:52:03.819Z,19.51
2017-12-05T14:54:32.383Z,19.52
2017-12-05T14:57:00.675Z,19.51
2017-12-05T14:59:28.970Z,19.52
2017-12-05T15:01:57.272Z,19.53
2017-12-05T15:04:25.695Z,19.52
2017-12-05T15:06:54.523Z,19.53
2017-12-05T15:09:23.062Z,19.53
2017-12-05T15:11:51.395Z,19.54
2017-12-05T15:14:20.890Z,19.53
2017-12-05T15:16:50.803Z,19.53
2017-12-05T15:19:21.155Z,19.54
2017-12-05T15:21:49.634Z,19.54
2017-12-05T15:24:18.047Z,19.54
2017-12-05T15:26:46.339Z,19.54
2017-12-05T15:29:14.790Z,19.54
2017-12-05T15:31:43.111Z,19.55
2017-12-05T15:34:11.439Z,19.55
2017-12-05T15:36:39.744Z,19.56
2017-12-05T15:39:08.035Z,19.56
2017-12-05T15:41:36.532Z,19.56
2017-12-05T15:44:04.836Z,19.56
2017-12-05T15:46:33.141Z,19.57
2017-12-05T15:49:01.525Z,19.56
2017-12-05T15:51:29.815Z,19.56
2017-12-05T15:53:58.191Z,19.56
2017-12-05T15:56:26.487Z,19.57
2017-12-05T15:58:54.819Z,19.57
2017-12-05T16:01:23.165Z,19.57
2017-12-05T16:03:51.734Z,19.58
2017-12-05T16:06:20.032Z,19.59
2017-12-05T16:08:48.315Z,19.58
2017-12-05T16:11:16.759Z,19.57
2017-12-05T16:13:45.028Z,19.56
2017-12-05T16:16:13.371Z,19.57
2017-12-05T16:18:41.661Z,19.57
2017-12-05T16:21:10.029Z,19.57
2017-12-05T16:23:38.295Z,19.56
2017-12-05T16:26:06.582Z,19.56
2017-12-05T16:28:35.063Z,19.55
2017-12-05T16:31:03.354Z,19.56
2017-12-05T16:33:31.615Z,19.56
2017-12-05T16:35:59.907Z,19.57
2017-12-05T16:38:28.272Z,19.55
2017-12-05T16:40:56.619Z,19.55
2017-12-05T16:43:24.920Z,19.57
2017-12-05T16:45:53.245Z,19.58
2017-12-05T16:48:21.515Z,19.58
2017-12-05T16:50:49.995Z,19.57
2017-12-05T16:53:18.276Z,19.55
2017-12-05T16:55:46.759Z,19.53
2017-12-05T16:58:15.211Z,19.55
2017-12-05T17:00:43.576Z,19.55
2017-12-05T17:03:12.017Z,19.56
2017-12-05T17:05:40.610Z,19.56
2017-12-05T17:08:08.924Z,19.58
2017-12-05T17:10:37.252Z,19.58
2017-12-05T17:13:05.532Z,19.56
2017-12-05T17:15:33.834Z,19.57
2017-12-05T17:18:02.138Z,19.57
2017-12-05T17:20:30.435Z,19.58
2017-12-05T17:22:58.743Z,19.59
2017-12-05T17:25:27.135Z,19.61
2017-12-05T17:27:55.498Z,19.62
2017-12-05T17:30:23.840Z,19.68
2017-12-05T17:32:52.115Z,19.66
2017-12-05T17:35:21.279Z,19.64
2017-12-05T17:37:49.636Z,19.65
2017-12-05T17:40:18.083Z,19.64
2017-12-05T17:42:46.515Z,19.64
2017-12-05T17:45:14.830Z,19.64
2017-12-05T17:47:43.296Z,19.65
2017-12-05T17:50:11.609Z,19.64
2017-12-05T17:52:40.012Z,19.66
2017-12-05T17:55:08.817Z,19.65
2017-12-05T17:57:37.360Z,19.65
2017-12-05T18:00:05.806Z,19.66
2017-12-05T18:02:34.179Z,19.67
2017-12-05T18:05:02.440Z,19.68
2017-12-05T18:07:30.959Z,19.69
2017-12-05T18:09:59.234Z,19.71
2017-12-05T18:12:27.616Z,19.71
2017-12-05T18:14:55.886Z,19.71
2017-12-05T18:17:24.476Z,19.71
2017-12-05T18:19:52.738Z,19.71
2017-12-05T18:22:21.099Z,19.72
2017-12-05T18:24:49.415Z,19.73
2017-12-05T18:27:17.844Z,19.73
2017-12-05T18:29:46.159Z,19.73
2017-12-05T18:32:14.588Z,19.73
2017-12-05T18:34:42.880Z,19.74
2017-12-05T18:37:11.343Z,19.75
2017-12-05T18:39:39.635Z,19.75
2017-12-05T18:42:07.998Z,19.75
2017-12-05T18:44:36.299Z,19.75
2017-12-05T18:47:04.630Z,19.76
2017-12-05T18:49:32.936Z,19.76
2017-12-05T18:52:01.320Z,19.76
2017-12-05T18:54:29.592Z,19.76
2017-12-05T18:56:57.944Z,19.76
2017-12-05T18:59:26.219Z,19.76
2017-12-05T19:01:54.516Z,19.77
2017-12-05T19:04:22.899Z,19.77
2017-12-05T19:06:51.239Z,19.78
2017-12-05T19:09:19.667Z,19.79
2017-12-05T19:11:48.083Z,19.80
2017-12-05T19:14:16.391Z,19.79
2017-12-05T19:16:46.599Z,19.80
2017-12-05T19:19:15.821Z,19.79
2017-12-05T19:21:45.708Z,19.80
2017-12-05T19:24:14.183Z,19.80
2017-12-05T19:26:42.474Z,19.80
2017-12-05T19:29:10.987Z,19.81
2017-12-05T19:31:39.427Z,19.80
2017-12-05T19:34:07.988Z,19.80
2017-12-05T19:36:36.492Z,19.79
2017-12-05T19:39:05.032Z,19.80
2017-12-05T19:41:33.559Z,19.79
2017-12-05T19:44:01.827Z,19.80
2017-12-05T19:46:30.163Z,19.79
2017-12-05T19:48:58.466Z,19.80
2017-12-05T19:51:26.935Z,19.81
2017-12-05T19:53:55.206Z,19.80
2017-12-05T19:56:23.615Z,19.81
2017-12-05T19:58:52.063Z,19.81
2017-12-05T20:01:20.702Z,19.80
2017-12-05T20:03:48.990Z,19.81
2017-12-05T20:06:17.798Z,19.82
2017-12-05T20:08:46.551Z,19.81
2017-12-05T20:11:15.571Z,19.82
2017-12-05T20:13:44.701Z,19.81
2017-12-05T20:16:13.087Z,19.82
2017-12-05T20:18:41.499Z,19.81
2017-12-05T20:21:09.815Z,19.81
2017-12-05T20:23:38.280Z,19.82
2017-12-05T20:26:06.951Z,19.81
2017-12-05T20:28:35.607Z,19.82
2017-12-05T20:31:04.147Z,19.81
2017-12-05T20:33:32.760Z,19.82
2017-12-05T20:36:01.523Z,19.82
2017-12-05T20:38:29.828Z,19.82
2017-12-05T20:40:58.307Z,19.82
2017-12-05T20:43:26.657Z,19.81
2017-12-05T20:45:54.993Z,19.81
2017-12-05T20:48:23.312Z,19.83
2017-12-05T20:50:52.735Z,19.84
2017-12-05T20:53:21.046Z,19.86
2017-12-05T20:55:49.347Z,19.87
2017-12-05T20:58:17.764Z,19.87
2017-12-05T21:00:46.388Z,19.89
2017-12-05T21:03:14.963Z,19.90
2017-12-05T21:05:43.360Z,19.91
2017-12-05T21:08:11.729Z,19.89
2017-12-05T21:10:40.123Z,19.92
2017-12-05T21:13:08.469Z,19.93
2017-12-05T21:15:36.835Z,19.93
2017-12-05T21:18:05.435Z,19.93
2017-12-05T21:20:34.186Z,19.94
2017-12-05T21:23:02.577Z,19.93
2017-12-05T21:25:30.941Z,19.93
2017-12-05T21:27:59.730Z,19.99
2017-12-05T21:30:28.461Z,19.97
2017-12-05T21:32:56.795Z,19.94
2017-12-05T21:35:25.091Z,19.92
2017-12-05T21:37:55.805Z,19.89
2017-12-05T21:40:24.327Z,19.88
2017-12-05T21:42:52.636Z,19.87
2017-12-05T21:45:21.287Z,19.86
2017-12-05T21:47:49.698Z,19.86
2017-12-05T21:50:18.223Z,19.89
2017-12-05T21:52:46.637Z,19.96
2017-12-05T21:55:17.017Z,19.93
2017-12-05T21:57:49.582Z,19.90
2017-12-05T22:00:19.351Z,19.88
2017-12-05T22:02:47.623Z,19.88
2017-12-05T22:05:15.935Z,19.87
2017-12-05T22:07:44.219Z,19.83
2017-12-05T22:10:12.558Z,19.81
2017-12-05T22:12:40.821Z,19.79
2017-12-05T22:15:09.276Z,19.72
2017-12-05T22:17:37.554Z,19.72
2017-12-05T22:20:05.874Z,19.75
2017-12-05T22:22:34.259Z,19.71
2017-12-05T22:25:03.239Z,19.74
2017-12-05T22:27:32.850Z,19.71
2017-12-05T22:30:01.299Z,19.72
2017-12-05T22:32:32.605Z,19.71
2017-12-05T22:35:00.899Z,19.69
2017-12-05T22:37:29.291Z,19.63
2017-12-05T22:39:57.735Z,19.62
2017-12-05T22:42:26.170Z,19.60
2017-12-05T22:44:54.482Z,19.60
2017-12-05T22:47:22.807Z,19.56
2017-12-05T22:49:51.358Z,19.56
2017-12-05T22:52:19.654Z,19.57
2017-12-05T22:54:48.123Z,19.55
2017-12-05T22:57:16.435Z,19.56
2017-12-05T22:59:44.704Z,19.53
2017-12-05T23:02:13.195Z,19.51
2017-12-05T23:04:41.563Z,19.51
2017-12-05T23:07:10.671Z,19.45
2017-12-05T23:09:40.815Z,19.43
2017-12-05T23:12:11.923Z,19.44
2017-12-05T23:14:41.536Z,19.48
2017-12-05T23:17:12.171Z,19.51
2017-12-05T23:19:40.651Z,19.51
2017-12-05T23:22:09.115Z,19.50
2017-12-05T23:24:37.399Z,19.50
2017-12-05T23:27:05.683Z,19.51
2017-12-05T23:29:34.179Z,19.50
2017-12-05T23:32:02.632Z,19.47
2017-12-05T23:34:31.062Z,19.49
2017-12-05T23:36:59.500Z,19.45
2017-12-05T23:39:27.751Z,19.45
2017-12-05T23:41:56.059Z,19.49
2017-12-05T23:44:24.323Z,19.46
2017-12-05T23:46:52.682Z,19.42
2017-12-05T23:49:21.154Z,19.37
2017-12-05T23:51:49.451Z,19.45
2017-12-05T23:54:17.703Z,19.45
2017-12-05T23:56:46.023Z,19.47
2017-12-05T23:59:14.449Z,19.48
